Latest Weather Observations for Mount Moornapa

IDV60801

Issued at 11:35 am EST Friday 19 September 2014 (issued every 30 minutes, with the page automatically refreshed every 10 minutes)

About weather observations | Map of weather stations | Latest weather observations for VIC | Other Formats
Station Details ID: 085296 Name: MOUNT MOORNAPA Lat: -37.75 Lon: 147.14 Height: 480.0 m
Data from the previous 72 hours. | See also: Recent months at Mount Moornapa
Date/Time
EST
Temp
°C
App
Temp
°C
Dew
Point
Rel
Hum
%
Delta-T
°C
Wind Press
QNH
hPa
Press
MSL
hPa
Rain
since 9 am
mm
Dir
 
Spd
km/h
Gust
km/h
Spd
kts
Gust
kts
19/11:30am 11.4 8.4 5.9 69 2.6 WSW 11 22 6 12 - - 0.0
19/11:00am 11.2 8.4 5.3 67 2.8 WSW 9 20 5 11 - - 0.0
19/10:30am 9.8 6.4 4.0 67 2.6 W 11 28 6 15 - - 0.0
19/10:00am 9.6 6.3 4.4 70 2.4 WSW 11 32 6 17 - - 0.0
19/09:30am 9.2 5.8 4.0 70 2.3 WSW 11 26 6 14 - - 0.0
19/09:00am 9.8 7.2 4.4 69 2.5 WSW 7 17 4 9 - - 0.4
19/08:30am 7.9 3.9 3.0 71 2.1 WSW 13 24 7 13 - - 0.4
19/08:00am 7.3 3.2 2.4 71 2.1 W 13 22 7 12 - - 0.4
19/07:30am 6.7 2.1 1.6 70 2.1 W 15 28 8 15 - - 0.4
19/07:00am 6.2 1.9 1.1 70 2.1 W 13 22 7 12 - - 0.4
19/06:30am 5.9 1.6 1.2 72 1.9 W 13 24 7 13 - - 0.4
19/06:00am 5.6 1.4 1.5 75 1.7 W 13 20 7 11 - - 0.4
19/05:30am 5.5 0.8 0.7 71 1.9 W 15 20 8 11 - - 0.4
19/05:00am 6.0 1.3 0.6 68 2.2 W 15 24 8 13 - - 0.4
19/04:30am 5.2 1.2 0.8 73 1.8 WNW 11 20 6 11 - - 0.4
19/04:00am 5.5 0.7 0.5 70 2.0 WNW 15 28 8 15 - - 0.4
19/03:30am 5.1 1.1 0.5 72 1.8 WNW 11 20 6 11 - - 0.4
19/03:00am 4.4 0.5 1.1 79 1.3 WNW 11 19 6 10 - - 0.4
19/02:30am 5.1 1.2 1.0 75 1.7 W 11 24 6 13 - - 0.4
19/02:00am 5.8 1.5 1.2 72 1.9 W 13 24 7 13 - - 0.4
19/01:30am 5.8 1.9 1.2 72 1.9 W 11 20 6 11 - - 0.4
19/01:00am 6.4 2.1 0.9 68 2.2 W 13 20 7 11 - - 0.4
19/12:30am 6.5 1.9 1.4 70 2.1 W 15 32 8 17 - - 0.4
19/12:00am 6.3 1.4 2.0 74 1.8 W 17 30 9 16 - - 0.4
 
Date/Time
EST
Temp
°C
App
Temp
°C
Dew
Point
Rel
Hum
%
Delta-T
°C
Wind Press
QNH
hPa
Press
MSL
hPa
Rain
since 9 am
mm
Dir
 
Spd
km/h
Gust
km/h
Spd
kts
Gust
kts
18/11:30pm 6.3 1.6 1.2 70 2.1 W 15 24 8 13 - - 0.4
18/11:00pm 6.2 1.6 1.3 71 2.0 W 15 22 8 12 - - 0.4
18/10:30pm 6.1 1.4 1.1 70 2.0 W 15 28 8 15 - - 0.4
18/10:00pm 5.7 1.2 2.0 77 1.5 WSW 15 26 8 14 - - 0.4
18/09:30pm 6.1 1.8 3.4 83 1.2 WSW 15 28 8 15 - - 0.4
18/09:00pm 6.4 2.2 3.9 84 1.1 W 15 26 8 14 - - 0.4
18/08:30pm 6.5 2.4 4.3 86 1.0 W 15 26 8 14 - - 0.4
18/08:00pm 6.4 3.2 4.9 90 0.7 W 11 24 6 13 - - 0.4
18/07:30pm 6.2 3.0 5.3 94 0.4 W 11 19 6 10 - - 0.4
18/07:00pm 6.5 3.7 5.3 92 0.5 WSW 9 19 5 10 - - 0.4
18/06:30pm 7.3 4.8 4.6 83 1.2 WSW 7 20 4 11 - - 0.0
18/06:00pm 7.6 5.3 4.7 82 1.3 WSW 6 13 3 7 - - 0.0
18/05:30pm 8.2 5.8 5.1 81 1.4 WSW 7 15 4 8 - - 0.0
18/05:00pm 8.6 5.7 4.4 75 1.9 W 9 24 5 13 - - 0.0
18/04:30pm 9.5 6.6 4.7 72 2.2 WSW 9 20 5 11 - - 0.0
18/04:00pm 9.3 5.5 3.9 69 2.4 SW 13 28 7 15 - - 0.0
18/03:30pm 10.2 6.6 4.8 69 2.5 WSW 13 32 7 17 - - 0.0
18/03:00pm 9.7 6.1 4.9 72 2.2 WSW 13 26 7 14 - - 0.0
18/02:30pm 7.9 4.0 3.6 74 1.9 WSW 13 24 7 13 - - 0.0
18/02:00pm 8.6 5.2 4.0 73 2.1 W 11 22 6 12 - - 0.0
18/01:30pm 8.6 4.0 3.6 71 2.2 WSW 17 39 9 21 - - 0.0
18/01:00pm 9.2 5.9 4.8 74 2.0 WSW 11 20 6 11 - - 0.0
18/12:30pm 7.5 2.9 3.6 76 1.7 WSW 17 43 9 23 - - 0.0
18/12:00pm 9.2 5.7 3.4 67 2.6 WSW 11 22 6 12 - - 0.0
18/11:30am 9.0 5.4 3.2 67 2.6 W 11 30 6 16 - - 0.0
18/11:00am 7.2 3.6 5.2 87 0.9 W 13 26 7 14 - - 0.0
18/10:30am 8.3 4.0 3.0 69 2.3 SW 15 35 8 19 - - 0.0
18/10:00am 9.1 5.4 4.3 72 2.2 WSW 13 26 7 14 - - 0.0
18/09:30am 7.6 3.7 3.5 75 1.8 WSW 13 26 7 14 - - 0.0
18/09:00am 6.9 3.3 3.0 76 1.7 WSW 11 24 6 13 - - 1.2
18/08:30am 6.7 3.1 3.1 78 1.6 WSW 11 26 6 14 - - 1.2
18/08:00am 6.2 2.2 2.7 78 1.5 WSW 13 30 7 16 - - 1.2
18/07:30am 5.8 1.7 2.4 79 1.4 W 13 28 7 15 - - 1.2
18/07:00am 5.3 0.8 2.3 81 1.3 WSW 15 26 8 14 - - 1.2
18/06:30am 5.2 0.3 2.0 80 1.3 W 17 28 9 15 - - 1.2
18/06:00am 5.0 0.1 2.0 81 1.2 W 17 32 9 17 - - 1.2
18/05:30am 5.4 0.9 2.2 80 1.3 W 15 35 8 19 - - 1.2
18/05:00am 5.4 0.5 2.2 80 1.3 W 17 35 9 19 - - 1.2
18/04:30am 5.2 0.0 2.2 81 1.2 W 19 37 10 20 - - 1.2
18/04:00am 5.1 0.6 2.1 81 1.2 W 15 32 8 17 - - 1.2
18/03:30am 5.2 1.1 2.0 80 1.3 W 13 28 7 15 - - 1.2
18/03:00am 4.9 1.6 2.4 84 1.0 W 9 19 5 10 - - 1.0
18/02:30am 5.2 1.5 2.2 81 1.2 W 11 28 6 15 - - 1.0
18/02:00am 5.6 0.7 1.7 76 1.6 W 17 37 9 20 - - 1.0
18/01:30am 5.5 1.3 1.4 75 1.7 W 13 26 7 14 - - 1.0
18/01:00am 5.5 1.3 1.4 75 1.7 W 13 26 7 14 - - 1.0
18/12:30am 5.2 1.0 1.5 77 1.5 W 13 22 7 12 - - 1.0
18/12:00am 5.3 1.1 1.6 77 1.5 W 13 28 7 15 - - 1.0
 
Date/Time
EST
Temp
°C
App
Temp
°C
Dew
Point
Rel
Hum
%
Delta-T
°C
Wind Press
QNH
hPa
Press
MSL
hPa
Rain
since 9 am
mm
Dir
 
Spd
km/h
Gust
km/h
Spd
kts
Gust
kts
17/11:30pm 5.5 0.9 1.4 75 1.7 W 15 30 8 16 - - 1.0
17/11:00pm 5.5 0.5 1.1 73 1.8 W 17 35 9 19 - - 1.0
17/10:30pm 5.3 -0.3 1.4 76 1.6 W 20 37 11 20 - - 1.0
17/10:00pm 4.8 -0.1 1.8 81 1.2 W 17 32 9 17 - - 1.0
17/09:30pm 4.9 -0.6 1.9 81 1.2 W 20 43 11 23 - - 1.0
17/09:00pm 5.0 0.2 2.4 83 1.1 W 17 28 9 15 - - 1.0
17/08:30pm 4.3 -0.4 3.0 91 0.5 W 17 28 9 15 - - 1.0
17/08:00pm 4.3 -2.5 3.0 91 0.5 W 28 61 15 33 - - 1.0
17/07:55pm 4.7 -2.2 2.7 87 0.8 W 28 61 15 33 - - 1.0
17/07:30pm 5.8 1.2 1.7 75 1.7 W 15 28 8 15 - - 0.8
17/07:00pm 5.4 0.5 2.1 79 1.4 W 17 32 9 17 - - 0.8
17/06:30pm 5.7 0.9 2.4 79 1.4 WSW 17 50 9 27 - - 0.8
17/06:00pm 5.8 0.1 3.1 83 1.2 W 22 48 12 26 - - 0.8
17/05:30pm 5.2 -0.3 3.9 91 0.6 W 22 41 12 22 - - 0.8
17/05:00pm 6.2 2.7 5.3 94 0.4 SW 13 39 7 21 - - 0.6
17/04:30pm 6.6 2.8 5.6 93 0.5 WSW 15 39 8 21 - - 0.6
17/04:00pm 9.4 6.7 5.4 76 1.9 W 9 20 5 11 - - 0.4
17/03:30pm 7.7 3.1 5.8 88 0.9 W 19 35 10 19 - - 0.4
17/03:00pm 9.1 6.9 6.4 83 1.3 WSW 7 22 4 12 - - 0.0
17/02:30pm 8.2 5.1 5.5 83 1.2 SSW 11 35 6 19 - - 0.0
17/02:00pm 13.2 10.0 5.1 58 3.9 W 11 24 6 13 - - 0.0
17/01:30pm 12.6 9.9 5.5 62 3.4 W 9 22 5 12 - - 0.0
17/01:00pm 13.4 8.4 3.5 51 4.6 WNW 19 43 10 23 - - 0.0
17/12:30pm 14.5 10.9 5.0 53 4.6 W 13 32 7 17 - - 0.0
17/12:00pm 13.7 10.1 4.8 55 4.2 W 13 32 7 17 - - 0.0
17/11:30am 13.5 9.4 4.1 53 4.4 W 15 35 8 19 - - 0.0
17/11:00am 11.5 8.8 5.4 66 2.9 W 9 32 5 17 - - 0.0
17/10:30am 11.4 8.5 4.6 63 3.2 W 9 35 5 19 - - 0.0
17/10:00am 10.8 7.9 4.7 66 2.8 WNW 9 20 5 11 - - 0.0
17/09:30am 10.5 7.6 4.9 68 2.6 W 9 22 5 12 - - 0.0
17/09:00am 9.7 6.7 4.1 68 2.5 WNW 9 19 5 10 - - 0.2
17/08:30am 9.3 6.3 3.9 69 2.4 WNW 9 19 5 10 - - 0.2
17/08:00am 7.9 4.3 3.0 71 2.1 WNW 11 24 6 13 - - 0.2
17/07:30am 7.8 4.5 2.5 69 2.3 NW 9 17 5 9 - - 0.2
17/07:00am 7.2 3.6 2.7 73 1.9 NW 11 22 6 12 - - 0.2
17/06:30am 7.4 3.8 2.7 72 2.0 NNW 11 22 6 12 - - 0.2
17/06:00am 6.8 3.3 3.6 80 1.4 NW 11 19 6 10 - - 0.2
17/05:30am 7.2 4.8 4.2 81 1.3 NW 6 13 3 7 - - 0.2
17/05:00am 6.8 4.8 4.3 84 1.1 WNW 4 4 2 2 - - 0.2
17/04:30am 7.1 4.7 4.2 82 1.3 NW 6 9 3 5 - - 0.2
17/04:00am 6.8 4.6 6.2 96 0.3 NW 7 9 4 5 - - 0.2
17/03:30am 6.8 4.7 6.7 99 0.0 NW 7 9 4 5 - - 0.0
17/03:00am 6.8 4.7 6.5 98 0.1 NW 7 9 4 5 - - 0.0
17/02:30am 7.2 4.7 6.6 96 0.3 W 9 15 5 8 - - 0.0
17/02:00am 7.4 4.7 7.3 99 0.0 W 11 19 6 10 - - 0.0
17/01:30am 7.4 5.4 7.3 99 0.0 SW 7 13 4 7 - - 0.0
17/01:00am 7.7 5.8 7.4 98 0.1 WSW 7 15 4 8 - - 0.0
17/12:30am 7.7 5.4 7.4 98 0.1 SW 9 19 5 10 - - 0.0
17/12:00am 8.2 6.2 7.1 93 0.5 SW 7 15 4 8 - - 0.0
 
Date/Time
EST
Temp
°C
App
Temp
°C
Dew
Point
Rel
Hum
%
Delta-T
°C
Wind Press
QNH
hPa
Press
MSL
hPa
Rain
since 9 am
mm
Dir
 
Spd
km/h
Gust
km/h
Spd
kts
Gust
kts
16/11:30pm 8.5 5.2 6.6 88 0.9 WSW 13 24 7 13 - - 0.0
16/11:00pm 8.9 6.0 6.3 84 1.2 WSW 11 20 6 11 - - 0.0
16/10:30pm 8.7 5.8 6.7 87 1.0 WSW 11 22 6 12 - - 0.0
16/10:00pm 8.9 5.6 6.2 83 1.3 W 13 26 7 14 - - 0.0
16/09:30pm 9.3 6.0 6.2 81 1.5 W 13 24 7 13 - - 0.0
16/09:00pm 9.5 5.9 6.6 82 1.4 W 15 28 8 15 - - 0.0
16/08:30pm 9.7 6.2 7.0 83 1.3 W 15 26 8 14 - - 0.0
16/08:00pm 9.7 6.2 7.1 84 1.3 W 15 28 8 15 - - 0.0
16/07:30pm 9.7 5.8 7.3 85 1.2 W 17 39 9 21 - - 0.0
16/07:00pm 10.0 5.7 7.9 87 1.0 WSW 20 43 11 23 - - 0.0
16/06:30pm 10.6 8.0 9.2 91 0.7 WSW 13 33 7 18 - - 0.0
16/06:00pm 11.2 8.9 9.1 87 1.1 SW 11 28 6 15 - - 0.0
16/05:30pm 11.3 9.1 9.2 87 1.1 SW 11 28 6 15 - - 0.0
16/05:00pm 11.2 9.1 9.6 90 0.8 SW 11 24 6 13 - - 0.0
16/04:30pm 11.5 10.4 9.9 90 0.8 SW 6 11 3 6 - - 0.0
16/04:00pm 11.6 10.6 10.2 91 0.7 SSW 6 20 3 11 - - 0.0
16/03:30pm 11.8 10.6 10.4 91 0.7 SW 7 17 4 9 - - 0.0
16/03:00pm 12.2 11.0 10.3 88 1.0 SSW 7 24 4 13 - - 0.0
16/02:30pm 12.6 11.1 10.5 87 1.1 SSW 9 20 5 11 - - 0.0
16/02:00pm 12.9 11.6 11.1 89 1.0 SW 9 24 5 13 - - 0.0
16/01:30pm 12.5 11.8 11.4 93 0.6 SSW 6 11 3 6 - - 0.0
16/01:00pm 12.2 10.9 11.1 93 0.6 SW 9 24 5 13 - - 0.0
16/12:30pm 12.3 11.3 11.0 92 0.7 SW 7 17 4 9 - - 0.0
16/12:00pm 12.5 11.6 10.7 89 1.0 SSW 6 15 3 8 - - 0.0

Other Formats:

Comma delimited format used in spreadsheet applications
http://www.bom.gov.au/fwo/IDV60801/IDV60801.95913.axf

JavaScript Object Notation format (JSON) in row-major order
http://www.bom.gov.au/fwo/IDV60801/IDV60801.95913.json